createdAt,value
2018-11-26T00:02:55.652Z,4.30
2018-11-26T00:08:05.427Z,4.40
2018-11-26T00:13:14.958Z,4.40
2018-11-26T00:18:24.589Z,4.40
2018-11-26T00:23:34.262Z,4.30
2018-11-26T00:28:44.003Z,4.30
2018-11-26T00:33:53.689Z,4.30
2018-11-26T00:39:03.862Z,4.40
2018-11-26T00:44:13.270Z,4.30
2018-11-26T00:49:22.874Z,4.40
2018-11-26T00:54:32.605Z,4.40
2018-11-26T00:59:42.237Z,4.40
2018-11-26T01:04:51.699Z,4.40
2018-11-26T01:10:01.148Z,4.40
2018-11-26T01:15:10.826Z,4.40
2018-11-26T01:20:20.438Z,4.40
2018-11-26T01:25:29.858Z,4.40
2018-11-26T01:30:39.495Z,4.50
2018-11-26T01:35:49.110Z,4.50
2018-11-26T01:40:58.597Z,4.50
2018-11-26T01:46:07.954Z,4.50
2018-11-26T01:51:17.574Z,4.50
2018-11-26T01:56:26.974Z,4.60
2018-11-26T02:01:36.374Z,4.60
2018-11-26T02:06:45.823Z,4.60
2018-11-26T02:11:55.349Z,4.70
2018-11-26T02:17:04.718Z,4.70
2018-11-26T02:22:14.137Z,4.60
2018-11-26T02:27:23.746Z,4.60
2018-11-26T02:32:33.283Z,4.70
2018-11-26T02:37:43.023Z,4.70
2018-11-26T02:42:52.654Z,4.70
2018-11-26T02:48:02.304Z,4.70
2018-11-26T02:53:11.678Z,4.70
2018-11-26T02:58:21.305Z,4.60
2018-11-26T03:03:30.893Z,4.60
2018-11-26T03:08:40.251Z,4.70
2018-11-26T03:13:49.871Z,4.70
2018-11-26T03:18:59.407Z,4.70
2018-11-26T03:24:08.933Z,4.70
2018-11-26T03:29:18.334Z,4.70
2018-11-26T03:34:27.758Z,4.80
2018-11-26T03:39:37.365Z,4.80
2018-11-26T03:44:46.875Z,4.80
2018-11-26T03:49:56.538Z,4.80
2018-11-26T03:55:07.614Z,4.80
2018-11-26T04:00:17.521Z,4.80
2018-11-26T04:05:27.006Z,4.80
2018-11-26T04:10:36.569Z,4.80
2018-11-26T04:15:46.003Z,4.80
2018-11-26T04:20:55.527Z,4.80
2018-11-26T04:26:05.155Z,4.70
2018-11-26T04:31:14.794Z,4.80
2018-11-26T04:36:24.426Z,4.70
2018-11-26T04:41:34.030Z,4.70
2018-11-26T04:46:43.630Z,4.60
2018-11-26T04:51:53.029Z,4.50
2018-11-26T04:57:02.608Z,4.50
2018-11-26T05:02:12.243Z,4.50
2018-11-26T05:07:21.610Z,4.50
2018-11-26T05:12:31.086Z,4.50
2018-11-26T05:17:40.719Z,4.50
2018-11-26T05:22:50.370Z,4.50
2018-11-26T05:28:00.096Z,4.60
2018-11-26T05:33:09.738Z,4.60
2018-11-26T05:38:19.456Z,4.60
2018-11-26T05:43:28.889Z,4.60
2018-11-26T05:48:38.501Z,4.50
2018-11-26T05:53:47.958Z,4.60
2018-11-26T05:58:57.741Z,4.60
2018-11-26T06:04:07.354Z,4.60
2018-11-26T06:09:17.042Z,4.50
2018-11-26T06:14:26.754Z,4.50
2018-11-26T06:19:36.148Z,4.50
2018-11-26T06:24:45.658Z,4.50
2018-11-26T06:29:55.114Z,4.50
2018-11-26T06:35:06.205Z,4.60
2018-11-26T06:40:15.660Z,4.60
2018-11-26T06:45:25.103Z,4.70
2018-11-26T06:50:34.943Z,4.60
2018-11-26T06:55:44.502Z,4.50
2018-11-26T07:00:53.998Z,4.50
2018-11-26T07:06:03.549Z,4.40
2018-11-26T07:11:13.402Z,4.40
2018-11-26T07:16:22.816Z,4.50
2018-11-26T07:21:32.558Z,4.50
2018-11-26T07:26:42.363Z,4.40
2018-11-26T07:31:52.011Z,4.40
2018-11-26T07:37:01.634Z,4.40
2018-11-26T07:42:11.262Z,4.40
2018-11-26T07:47:20.670Z,4.40
2018-11-26T07:52:30.338Z,4.40
2018-11-26T07:57:39.797Z,4.40
2018-11-26T08:02:49.800Z,4.50
2018-11-26T08:07:59.430Z,4.50
2018-11-26T08:13:08.994Z,4.50
2018-11-26T08:18:18.583Z,4.60
2018-11-26T08:23:28.081Z,4.70
2018-11-26T08:28:37.442Z,4.70
2018-11-26T08:33:46.837Z,4.80
2018-11-26T08:39:01.811Z,4.80
2018-11-26T08:44:12.460Z,4.90
2018-11-26T08:49:28.513Z,4.90
2018-11-26T08:54:38.138Z,5.00
2018-11-26T08:59:47.530Z,5.00
2018-11-26T09:05:00.144Z,5.00
2018-11-26T09:10:09.810Z,5.10
2018-11-26T09:21:32.014Z,5.30
2018-11-26T09:26:41.663Z,5.30
2018-11-26T09:31:51.241Z,5.40
2018-11-26T09:37:00.567Z,5.40
2018-11-26T09:42:10.278Z,5.60
2018-11-26T09:47:20.013Z,5.50
2018-11-26T09:52:29.855Z,5.60
2018-11-26T09:57:39.434Z,5.60
2018-11-26T10:02:50.377Z,5.70
2018-11-26T10:07:59.962Z,5.60
2018-11-26T10:13:09.459Z,5.50
2018-11-26T10:18:19.060Z,5.50
2018-11-26T10:23:28.901Z,5.60
2018-11-26T10:28:38.354Z,5.70
2018-11-26T10:33:48.094Z,5.70
2018-11-26T10:38:57.679Z,5.70
2018-11-26T10:44:07.363Z,5.60
2018-11-26T10:49:16.918Z,5.70
2018-11-26T10:54:26.435Z,5.70
2018-11-26T10:59:36.133Z,5.60
2018-11-26T11:04:47.788Z,5.60
2018-11-26T11:09:55.310Z,5.60
2018-11-26T11:15:06.124Z,5.70
2018-11-26T11:20:18.577Z,5.70
2018-11-26T11:25:27.929Z,5.70
2018-11-26T11:30:37.582Z,5.80
2018-11-26T11:35:47.244Z,5.80
2018-11-26T11:40:56.886Z,5.80
2018-11-26T11:46:06.959Z,5.80
2018-11-26T11:51:16.482Z,5.80
2018-11-26T11:56:26.102Z,5.80
2018-11-26T12:01:35.676Z,5.90
2018-11-26T12:06:45.361Z,6.00
2018-11-26T12:11:55.416Z,6.00
2018-11-26T12:17:05.015Z,6.00
2018-11-26T12:22:14.572Z,6.00
2018-11-26T12:27:24.079Z,6.00
2018-11-26T12:32:33.796Z,6.10
2018-11-26T12:37:43.344Z,6.00
2018-11-26T12:42:55.117Z,6.10
2018-11-26T12:48:04.619Z,6.20
2018-11-26T12:53:14.960Z,6.20
2018-11-26T12:58:24.579Z,6.20
2018-11-26T13:03:33.968Z,6.20
2018-11-26T13:08:43.389Z,6.00
2018-11-26T13:13:53.169Z,5.90
2018-11-26T13:19:02.718Z,6.10
2018-11-26T13:24:12.306Z,6.10
2018-11-26T13:29:22.027Z,6.00
2018-11-26T13:34:31.716Z,6.10
2018-11-26T13:39:42.389Z,6.10
2018-11-26T13:44:52.093Z,6.20
2018-11-26T13:50:01.618Z,6.20
2018-11-26T13:55:12.216Z,6.10
2018-11-26T14:00:21.867Z,6.10
2018-11-26T14:05:31.395Z,6.10
2018-11-26T14:10:41.344Z,6.20
2018-11-26T14:15:50.490Z,6.20
2018-11-26T14:21:01.150Z,6.10
2018-11-26T14:26:10.548Z,6.20
2018-11-26T14:31:20.271Z,6.20
2018-11-26T14:36:29.754Z,6.20
2018-11-26T14:41:39.435Z,6.10
2018-11-26T14:46:53.132Z,6.10
2018-11-26T14:52:04.534Z,6.10
2018-11-26T14:59:37.152Z,6.10
2018-11-26T15:04:46.877Z,6.00
2018-11-26T15:09:56.456Z,5.90
2018-11-26T15:15:08.271Z,5.90
2018-11-26T15:20:21.114Z,5.90
2018-11-26T15:25:32.101Z,5.90
2018-11-26T15:30:41.858Z,5.80
2018-11-26T15:35:51.368Z,5.80
2018-11-26T15:41:01.349Z,5.90
2018-11-26T15:46:10.829Z,6.00
2018-11-26T15:51:20.597Z,6.00
2018-11-26T15:56:30.141Z,6.00
2018-11-26T16:01:40.013Z,6.00
2018-11-26T16:06:50.402Z,6.00
2018-11-26T16:12:02.156Z,6.00
2018-11-26T16:17:11.766Z,6.00
2018-11-26T16:22:22.744Z,5.90
2018-11-26T16:27:32.349Z,5.90
2018-11-26T16:32:42.942Z,5.90
2018-11-26T16:37:52.515Z,5.90
2018-11-26T16:43:02.175Z,5.90
2018-11-26T16:48:12.061Z,5.80
2018-11-26T16:53:21.581Z,5.80
2018-11-26T16:58:31.248Z,5.70
2018-11-26T17:03:40.746Z,5.70
2018-11-26T17:08:50.897Z,5.70
2018-11-26T17:14:00.507Z,5.70
2018-11-26T17:19:09.942Z,5.70
2018-11-26T17:24:19.742Z,5.70
2018-11-26T17:29:29.231Z,5.70
2018-11-26T17:34:39.793Z,5.70
2018-11-26T17:39:49.697Z,5.70
2018-11-26T17:44:59.424Z,5.80
2018-11-26T17:50:14.247Z,5.70
2018-11-26T17:55:23.798Z,5.70
2018-11-26T18:00:34.316Z,5.70
2018-11-26T18:05:44.196Z,5.60
2018-11-26T18:10:54.083Z,5.60
2018-11-26T18:16:03.648Z,5.50
2018-11-26T18:21:13.253Z,5.50
2018-11-26T18:26:22.788Z,5.50
2018-11-26T18:31:33.910Z,5.40
2018-11-26T18:36:44.027Z,5.40
2018-11-26T18:41:55.198Z,5.30
2018-11-26T18:47:05.250Z,5.30
2018-11-26T18:52:14.902Z,5.20
2018-11-26T18:57:24.509Z,5.20
2018-11-26T19:02:34.476Z,5.20
2018-11-26T19:07:44.435Z,5.20
2018-11-26T19:12:59.859Z,5.20
2018-11-26T19:18:14.842Z,5.20
2018-11-26T19:23:26.044Z,5.10
2018-11-26T19:28:35.476Z,4.90
2018-11-26T19:33:44.998Z,4.80
2018-11-26T19:38:55.555Z,4.70
2018-11-26T19:44:05.356Z,4.70
2018-11-26T19:49:15.424Z,4.70
2018-11-26T19:54:25.076Z,4.70
2018-11-26T19:59:35.031Z,4.70
2018-11-26T20:04:51.887Z,4.70
2018-11-26T20:10:01.740Z,4.70
2018-11-26T20:15:14.109Z,4.60
2018-11-26T20:20:23.793Z,4.60
2018-11-26T20:25:33.253Z,4.50
2018-11-26T20:30:43.405Z,4.50
2018-11-26T20:36:00.313Z,4.50
2018-11-26T20:41:11.794Z,4.50
2018-11-26T20:46:21.752Z,4.40
2018-11-26T20:51:31.743Z,4.40
2018-11-26T20:56:41.683Z,4.40
2018-11-26T21:01:52.469Z,4.40
2018-11-26T21:07:02.159Z,4.30
2018-11-26T21:12:11.693Z,4.20
2018-11-26T21:17:21.507Z,4.30
2018-11-26T21:22:31.168Z,4.30
2018-11-26T21:27:40.962Z,4.20
2018-11-26T21:32:50.435Z,4.10
2018-11-26T21:37:59.829Z,4.20
2018-11-26T21:43:10.693Z,4.20
2018-11-26T21:48:20.254Z,4.20
2018-11-26T21:53:30.216Z,4.20
2018-11-26T21:58:39.803Z,4.20
2018-11-26T22:03:49.423Z,4.20
2018-11-26T22:08:59.042Z,4.10
2018-11-26T22:14:08.574Z,4.10
2018-11-26T22:19:18.330Z,4.10
2018-11-26T22:24:28.118Z,4.10
2018-11-26T22:29:37.699Z,4.10
2018-11-26T22:34:47.725Z,4.10
2018-11-26T22:39:57.168Z,4.10
2018-11-26T22:45:09.583Z,4.00
2018-11-26T22:50:19.095Z,4.10
2018-11-26T22:55:28.757Z,4.00
2018-11-26T23:00:47.277Z,4.10
2018-11-26T23:05:56.697Z,4.10
2018-11-26T23:11:06.945Z,4.10
2018-11-26T23:16:16.533Z,4.10
2018-11-26T23:21:26.149Z,4.10
2018-11-26T23:26:35.748Z,4.10
2018-11-26T23:31:45.173Z,4.00
2018-11-26T23:36:54.729Z,4.10
2018-11-26T23:42:04.621Z,3.90
2018-11-26T23:47:14.520Z,4.00
2018-11-26T23:52:24.018Z,4.00
2018-11-26T23:57:33.560Z,3.90
